createdAt,value
2022-10-09T00:05:01.982Z,8.03
2022-10-09T00:10:05.809Z,6.77
2022-10-09T00:15:09.657Z,6.63
2022-10-09T00:20:13.489Z,8.73
2022-10-09T00:25:16.799Z,11.63
2022-10-09T00:30:20.929Z,10.73
2022-10-09T00:35:24.209Z,10.03
2022-10-09T00:40:27.196Z,11.80
2022-10-09T00:45:31.268Z,12.03
2022-10-09T00:50:46.032Z,10.40
2022-10-09T00:55:50.452Z,11.20
2022-10-09T01:00:57.069Z,11.80
2022-10-09T01:06:18.379Z,8.50
2022-10-09T01:12:03.611Z,5.60
2022-10-09T01:17:46.670Z,6.93
2022-10-09T01:23:41.999Z,9.07
2022-10-09T01:28:59.517Z,8.43
2022-10-09T01:34:04.718Z,12.70
2022-10-09T01:39:19.010Z,10.60
2022-10-09T01:44:31.599Z,11.30
2022-10-09T01:50:04.410Z,8.93
2022-10-09T01:55:32.080Z,7.97
2022-10-09T02:00:46.660Z,11.67
2022-10-09T02:05:52.090Z,10.07
2022-10-09T02:11:15.850Z,6.10
2022-10-09T02:16:37.767Z,6.30
2022-10-09T02:21:54.601Z,6.17
2022-10-09T02:27:02.539Z,8.40
2022-10-09T02:32:08.852Z,6.00
2022-10-09T02:37:16.109Z,7.27
2022-10-09T02:42:35.509Z,8.20
2022-10-09T02:47:39.187Z,7.47
2022-10-09T02:52:42.460Z,8.60
2022-10-09T02:57:45.756Z,7.00
2022-10-09T03:02:49.144Z,10.97
2022-10-09T03:07:53.729Z,11.53
2022-10-09T03:12:57.150Z,11.40
2022-10-09T03:18:00.889Z,11.97
2022-10-09T03:23:04.217Z,9.03
2022-10-09T03:28:10.856Z,12.77
2022-10-09T03:33:14.148Z,11.70
2022-10-09T03:38:18.001Z,12.00
2022-10-09T03:43:21.629Z,10.70
2022-10-09T03:48:25.511Z,13.90
2022-10-09T03:53:28.750Z,11.17
2022-10-09T03:58:32.698Z,10.70
2022-10-09T04:03:36.749Z,15.00
2022-10-09T04:08:40.651Z,17.63
2022-10-09T04:13:45.110Z,13.33
2022-10-09T04:18:48.642Z,11.47
2022-10-09T04:23:52.382Z,13.73
2022-10-09T04:28:55.671Z,10.13
2022-10-09T04:33:58.992Z,9.17
2022-10-09T04:39:02.996Z,10.77
2022-10-09T04:44:06.723Z,14.17
2022-10-09T04:49:14.144Z,11.37
2022-10-09T04:54:17.681Z,14.50
2022-10-09T04:59:20.652Z,10.40
2022-10-09T05:04:24.173Z,8.40
2022-10-09T05:09:27.900Z,9.23
2022-10-09T05:14:31.401Z,12.67
2022-10-09T05:19:34.773Z,7.80
2022-10-09T05:24:38.061Z,9.23
2022-10-09T05:29:41.102Z,9.70
2022-10-09T05:34:44.401Z,13.07
2022-10-09T05:39:47.741Z,8.70
2022-10-09T05:44:51.294Z,12.77
2022-10-09T05:49:54.881Z,8.17
2022-10-09T05:54:58.167Z,12.97
2022-10-09T06:00:01.501Z,11.77
2022-10-09T06:05:04.870Z,9.07
2022-10-09T06:10:08.785Z,11.57
2022-10-09T06:15:12.106Z,10.17
2022-10-09T06:20:15.443Z,14.30
2022-10-09T06:25:18.972Z,16.23
2022-10-09T06:30:22.570Z,9.47
2022-10-09T06:35:26.162Z,11.50
2022-10-09T06:40:29.210Z,13.47
2022-10-09T06:45:36.903Z,12.37
2022-10-09T06:50:41.004Z,15.27
2022-10-09T06:55:57.544Z,14.40
2022-10-09T07:01:12.050Z,11.57
2022-10-09T07:06:21.322Z,14.23
2022-10-09T07:11:28.150Z,14.60
2022-10-09T07:16:34.377Z,12.07
2022-10-09T07:21:40.085Z,12.30
2022-10-09T07:26:45.891Z,7.13
2022-10-09T07:31:50.330Z,16.53
2022-10-09T07:36:53.631Z,10.93
2022-10-09T07:41:57.390Z,10.33
2022-10-09T07:47:01.132Z,9.07
2022-10-09T07:52:04.480Z,9.00
2022-10-09T07:57:09.226Z,5.63
2022-10-09T08:02:16.908Z,11.37
2022-10-09T08:07:22.323Z,7.10
2022-10-09T08:12:25.622Z,8.33
2022-10-09T08:17:28.832Z,5.30
2022-10-09T08:22:32.122Z,6.40
2022-10-09T08:27:35.722Z,6.00
2022-10-09T08:32:41.744Z,7.93
2022-10-09T08:37:45.005Z,8.23
2022-10-09T08:43:00.375Z,6.70
2022-10-09T08:48:18.854Z,8.03
2022-10-09T08:53:36.731Z,7.33
2022-10-09T08:58:42.242Z,12.13
2022-10-09T09:04:14.882Z,5.90
2022-10-09T09:09:29.773Z,5.20
2022-10-09T09:14:43.641Z,6.27
2022-10-09T09:20:08.952Z,7.63
2022-10-09T09:25:37.253Z,5.77
2022-10-09T09:30:48.019Z,7.27
2022-10-09T09:36:12.291Z,5.47
2022-10-09T09:41:15.582Z,5.23
2022-10-09T09:46:23.885Z,7.33
2022-10-09T09:51:37.452Z,4.27
2022-10-09T09:57:21.869Z,4.47
2022-10-09T10:02:36.510Z,3.93
2022-10-09T10:07:39.811Z,3.57
2022-10-09T10:12:56.913Z,6.97
2022-10-09T10:18:06.492Z,7.17
2022-10-09T10:23:34.668Z,5.03
2022-10-09T10:29:34.014Z,3.97
2022-10-09T10:34:43.782Z,5.23
2022-10-09T10:39:57.258Z,8.67
2022-10-09T10:45:21.619Z,13.50
2022-10-09T10:50:31.524Z,6.40
2022-10-09T10:55:53.211Z,6.17
2022-10-09T11:01:25.892Z,6.00
2022-10-09T11:06:58.515Z,7.43
2022-10-09T11:12:15.585Z,8.70
2022-10-09T11:17:28.750Z,4.80
2022-10-09T11:22:53.530Z,4.00
2022-10-09T11:28:30.466Z,7.00
2022-10-09T11:33:39.245Z,6.67
2022-10-09T11:39:01.262Z,4.17
2022-10-09T11:44:23.470Z,4.17
2022-10-09T11:49:50.663Z,3.63
2022-10-09T11:54:54.342Z,3.43
2022-10-09T12:00:11.441Z,4.07
2022-10-09T12:05:43.647Z,4.20
2022-10-09T12:10:55.970Z,6.53
2022-10-09T12:16:00.212Z,3.17
2022-10-09T12:21:19.104Z,3.80
2022-10-09T12:26:25.721Z,4.10
2022-10-09T12:31:40.303Z,5.13
2022-10-09T12:36:44.199Z,3.43
2022-10-09T12:41:51.170Z,4.33
2022-10-09T12:46:55.602Z,4.30
2022-10-09T12:52:00.978Z,3.77
2022-10-09T12:57:04.336Z,6.00
2022-10-09T13:02:12.805Z,4.37
2022-10-09T13:07:27.990Z,4.00
2022-10-09T13:12:33.010Z,8.33
2022-10-09T13:17:40.832Z,3.20
2022-10-09T13:23:05.712Z,2.07
2022-10-09T13:28:09.536Z,2.93
2022-10-09T13:33:17.122Z,5.50
2022-10-09T13:38:20.683Z,3.57
2022-10-09T13:43:27.082Z,7.20
2022-10-09T13:48:32.012Z,8.63
2022-10-09T13:53:35.482Z,3.23
2022-10-09T13:58:38.772Z,5.83
2022-10-09T14:03:42.515Z,5.67
2022-10-09T14:08:45.818Z,5.90
2022-10-09T14:13:48.953Z,2.50
2022-10-09T14:18:55.435Z,2.17
2022-10-09T14:24:01.810Z,4.93
2022-10-09T14:29:05.212Z,3.50
2022-10-09T14:34:08.582Z,4.23
2022-10-09T14:39:12.351Z,2.70
2022-10-09T14:44:15.689Z,2.60
2022-10-09T14:49:19.243Z,5.47
2022-10-09T14:54:23.661Z,4.60
2022-10-09T14:59:27.691Z,3.43
2022-10-09T15:04:31.492Z,3.63
2022-10-09T15:09:34.681Z,6.53
2022-10-09T15:14:38.317Z,4.70
2022-10-09T15:19:42.192Z,4.03
2022-10-09T15:24:47.795Z,4.83
2022-10-09T15:29:51.054Z,3.43
2022-10-09T15:34:54.284Z,3.20
2022-10-09T15:39:57.350Z,3.63
2022-10-09T15:45:00.613Z,3.60
2022-10-09T15:50:04.030Z,3.83
2022-10-09T15:55:07.584Z,5.87
2022-10-09T16:00:11.709Z,4.67
2022-10-09T16:05:15.033Z,6.13
2022-10-09T16:10:18.480Z,6.63
2022-10-09T16:15:24.542Z,3.63
2022-10-09T16:20:28.154Z,7.87
2022-10-09T16:25:32.041Z,9.53
2022-10-09T16:30:45.520Z,12.47
2022-10-09T16:35:48.700Z,9.17
2022-10-09T16:41:07.355Z,12.40
2022-10-09T16:46:28.397Z,14.17
2022-10-09T16:51:35.454Z,12.50
2022-10-09T16:56:41.074Z,11.60
2022-10-09T17:01:46.052Z,12.00
2022-10-09T17:06:49.764Z,10.43
2022-10-09T17:11:53.334Z,10.23
2022-10-09T17:16:57.672Z,11.37
2022-10-09T17:22:02.402Z,11.97
2022-10-09T17:27:10.814Z,14.63
2022-10-09T17:32:17.856Z,12.13
2022-10-09T17:37:21.564Z,13.90
2022-10-09T17:42:25.495Z,15.33
2022-10-09T17:47:29.597Z,30.87
2022-10-09T17:52:33.452Z,23.40
2022-10-09T17:57:37.177Z,42.53
2022-10-09T18:02:42.990Z,44.80
2022-10-09T18:07:49.945Z,43.53
2022-10-09T18:12:54.912Z,49.03
2022-10-09T18:18:02.386Z,46.43
2022-10-09T18:23:06.462Z,44.13
2022-10-09T18:33:30.291Z,24.77
2022-10-09T18:38:35.111Z,27.87
2022-10-09T18:43:39.133Z,37.07
2022-10-09T18:48:51.662Z,58.97
2022-10-09T18:54:01.762Z,74.97
2022-10-09T18:59:10.762Z,48.33
2022-10-09T19:04:16.132Z,33.73
2022-10-09T19:09:20.673Z,20.60
2022-10-09T19:14:26.228Z,25.17
2022-10-09T19:19:30.292Z,25.67
2022-10-09T19:24:35.139Z,22.60
2022-10-09T19:29:39.778Z,31.43
2022-10-09T19:34:44.842Z,27.57
2022-10-09T19:39:50.882Z,25.27
2022-10-09T19:44:54.426Z,29.67
2022-10-09T19:49:57.940Z,34.73
2022-10-09T19:55:01.932Z,40.87
2022-10-09T20:00:07.663Z,31.87
2022-10-09T20:05:12.286Z,31.57
2022-10-09T20:10:15.822Z,28.30
2022-10-09T20:15:20.800Z,30.60
2022-10-09T20:20:27.443Z,29.87
2022-10-09T20:25:31.202Z,43.63
2022-10-09T20:30:34.422Z,44.53
2022-10-09T20:35:44.124Z,34.93
2022-10-09T20:40:47.915Z,38.10
2022-10-09T20:45:51.092Z,37.83
2022-10-09T20:50:54.681Z,35.30
2022-10-09T20:56:02.632Z,36.13
2022-10-09T21:01:07.420Z,33.53
2022-10-09T21:06:14.481Z,24.50
2022-10-09T21:11:19.942Z,25.17
2022-10-09T21:16:24.983Z,18.83
2022-10-09T21:21:30.094Z,18.47
2022-10-09T21:26:36.092Z,21.03
2022-10-09T21:31:39.979Z,18.20
2022-10-09T21:37:08.819Z,15.80
2022-10-09T21:42:11.712Z,15.73
2022-10-09T21:47:21.496Z,17.50
2022-10-09T21:52:24.691Z,25.00
2022-10-09T21:57:27.992Z,17.20
2022-10-09T22:02:31.185Z,42.30
2022-10-09T22:07:34.765Z,57.40
2022-10-09T22:12:38.160Z,32.93
2022-10-09T22:17:41.602Z,27.50
2022-10-09T22:22:44.880Z,25.93
2022-10-09T22:27:48.042Z,24.30
2022-10-09T22:32:53.863Z,21.53
2022-10-09T22:37:58.130Z,18.03
2022-10-09T22:43:01.572Z,21.63
2022-10-09T22:48:05.046Z,24.37
2022-10-09T22:53:08.504Z,24.57
2022-10-09T22:58:11.824Z,26.20
2022-10-09T23:03:15.182Z,28.53
2022-10-09T23:08:18.372Z,25.00
2022-10-09T23:13:22.072Z,29.40
2022-10-09T23:18:25.829Z,33.73
2022-10-09T23:23:29.998Z,29.87
2022-10-09T23:28:33.613Z,28.23
2022-10-09T23:33:42.522Z,36.57
2022-10-09T23:38:46.132Z,29.07
2022-10-09T23:43:50.142Z,31.20
2022-10-09T23:48:54.272Z,28.63
2022-10-09T23:53:59.182Z,32.90
2022-10-09T23:59:06.883Z,29.40
